createdAt,value
2019-05-02T00:03:05.816Z,46.77
2019-05-02T00:11:27.349Z,46.25
2019-05-02T00:15:37.847Z,48.06
2019-05-02T00:19:45.014Z,45.64
2019-05-02T00:23:48.255Z,46.10
2019-05-02T00:27:54.068Z,46.72
2019-05-02T00:31:59.781Z,47.44
2019-05-02T00:36:05.580Z,46.93
2019-05-02T00:40:11.588Z,45.59
2019-05-02T00:44:17.285Z,45.15
2019-05-02T00:48:42.727Z,47.48
2019-05-02T00:52:48.487Z,46.50
2019-05-02T00:56:54.217Z,47.68
2019-05-02T01:01:19.537Z,48.46
2019-05-02T01:05:25.468Z,47.53
2019-05-02T01:09:32.595Z,47.22
2019-05-02T01:13:38.370Z,47.47
2019-05-02T01:17:44.038Z,49.59
2019-05-02T01:21:49.718Z,48.59
2019-05-02T01:25:55.487Z,48.18
2019-05-02T01:30:15.711Z,49.48
2019-05-02T01:34:34.924Z,49.18
2019-05-02T01:38:45.342Z,51.02
2019-05-02T01:42:51.143Z,49.29
2019-05-02T01:46:58.765Z,48.64
2019-05-02T01:51:10.064Z,49.16
2019-05-02T01:55:11.968Z,48.38
2019-05-02T01:59:17.649Z,51.63
2019-05-02T02:03:23.339Z,51.95
2019-05-02T02:07:29.030Z,50.99
2019-05-02T02:11:35.854Z,50.65
2019-05-02T02:15:41.730Z,49.92
2019-05-02T02:19:49.021Z,50.25
2019-05-02T02:24:02.367Z,49.60
2019-05-02T02:28:08.254Z,49.71
2019-05-02T02:32:20.345Z,50.65
2019-05-02T02:36:31.370Z,51.25
2019-05-02T02:40:33.661Z,49.33
2019-05-02T02:44:41.979Z,49.29
2019-05-02T02:48:47.700Z,51.71
2019-05-02T02:52:53.388Z,50.98
2019-05-02T02:56:59.083Z,52.20
2019-05-02T03:01:05.388Z,53.15
2019-05-02T03:05:11.266Z,51.63
2019-05-02T03:09:20.126Z,53.11
2019-05-02T03:13:24.367Z,52.69
2019-05-02T03:17:30.038Z,54.27
2019-05-02T03:21:35.844Z,53.20
2019-05-02T03:25:50.562Z,55.06
2019-05-02T03:29:51.528Z,49.90
2019-05-02T03:34:00.829Z,51.43
2019-05-02T03:38:05.153Z,49.13
2019-05-02T03:42:11.049Z,49.73
2019-05-02T03:46:20.706Z,51.59
2019-05-02T03:50:32.375Z,48.83
2019-05-02T03:54:32.547Z,48.40
2019-05-02T03:58:38.526Z,48.52
2019-05-02T04:02:44.970Z,48.95
2019-05-02T04:06:55.055Z,49.00
2019-05-02T04:11:20.965Z,48.77
2019-05-02T04:15:28.839Z,51.16
2019-05-02T04:19:35.259Z,52.18
2019-05-02T04:23:42.865Z,51.19
2019-05-02T04:27:49.169Z,49.49
2019-05-02T04:31:54.881Z,49.75
2019-05-02T04:36:00.633Z,49.59
2019-05-02T04:40:11.989Z,53.20
2019-05-02T04:44:15.288Z,51.53
2019-05-02T04:48:20.981Z,50.27
2019-05-02T04:52:28.823Z,51.85
2019-05-02T04:56:42.121Z,48.87
2019-05-02T05:00:45.130Z,49.32
2019-05-02T05:04:49.566Z,48.78
2019-05-02T05:08:58.484Z,50.71
2019-05-02T05:13:03.625Z,46.75
2019-05-02T05:17:09.386Z,46.79
2019-05-02T05:21:17.618Z,46.42
2019-05-02T05:25:30.180Z,46.21
2019-05-02T05:29:37.477Z,45.95
2019-05-02T05:33:43.175Z,45.38
2019-05-02T05:37:52.899Z,45.65
2019-05-02T05:41:57.822Z,45.25
2019-05-02T05:46:12.312Z,45.30
2019-05-02T05:50:11.153Z,45.29
2019-05-02T05:54:17.827Z,45.25
2019-05-02T05:58:23.703Z,44.91
2019-05-02T06:02:29.379Z,45.92
2019-05-02T06:06:35.134Z,44.41
2019-05-02T06:10:43.903Z,45.24
2019-05-02T06:14:48.200Z,43.15
2019-05-02T06:18:54.160Z,44.14
2019-05-02T06:23:01.275Z,42.77
2019-05-02T06:27:07.060Z,42.06
2019-05-02T06:31:16.695Z,42.39
2019-05-02T06:35:22.401Z,41.46
2019-05-02T06:39:32.005Z,41.41
2019-05-02T06:43:36.504Z,39.80
2019-05-02T06:47:43.606Z,40.10
2019-05-02T06:51:50.989Z,38.82
2019-05-02T06:55:56.708Z,38.29
2019-05-02T07:00:02.615Z,38.45
2019-05-02T07:04:10.255Z,38.69
2019-05-02T07:08:16.112Z,37.73
2019-05-02T07:12:21.959Z,35.78
2019-05-02T07:16:38.407Z,35.90
2019-05-02T07:20:40.499Z,36.24
2019-05-02T07:24:44.215Z,36.26
2019-05-02T07:28:51.022Z,36.51
2019-05-02T07:33:01.157Z,34.74
2019-05-02T07:37:08.464Z,35.48
2019-05-02T07:41:12.149Z,35.04
2019-05-02T07:45:18.187Z,33.51
2019-05-02T07:49:26.603Z,34.49
2019-05-02T07:53:31.248Z,34.99
2019-05-02T07:57:36.955Z,33.07
2019-05-02T08:01:44.891Z,31.27
2019-05-02T08:05:54.432Z,31.71
2019-05-02T08:09:57.546Z,31.01
2019-05-02T08:14:03.319Z,31.05
2019-05-02T08:18:09.181Z,30.75
2019-05-02T08:22:15.064Z,30.63
2019-05-02T08:26:21.732Z,29.85
2019-05-02T08:30:29.779Z,28.60
2019-05-02T08:34:35.478Z,28.90
2019-05-02T08:38:41.186Z,28.40
2019-05-02T08:42:46.879Z,28.96
2019-05-02T08:46:53.285Z,29.97
2019-05-02T08:50:59.080Z,31.64
2019-05-02T08:55:09.733Z,32.06
2019-05-02T08:59:14.741Z,33.00
2019-05-02T09:03:20.515Z,33.82
2019-05-02T09:07:26.389Z,33.96
2019-05-02T09:11:32.054Z,33.25
2019-05-02T09:15:40.348Z,34.18
2019-05-02T09:19:59.176Z,32.38
2019-05-02T09:23:52.603Z,30.42
2019-05-02T09:27:58.300Z,27.90
2019-05-02T09:32:05.019Z,27.99
2019-05-02T09:36:11.894Z,27.46
2019-05-02T09:40:17.974Z,26.85
2019-05-02T09:44:23.666Z,28.75
2019-05-02T09:48:29.364Z,28.51
2019-05-02T09:52:39.592Z,29.15
2019-05-02T09:56:43.121Z,29.38
2019-05-02T10:00:56.256Z,29.16
2019-05-02T10:05:02.028Z,27.81
2019-05-02T10:09:11.918Z,26.31
2019-05-02T10:13:17.290Z,25.98
2019-05-02T10:17:28.791Z,24.18
2019-05-02T10:21:34.687Z,23.96
2019-05-02T10:26:20.086Z,24.11
2019-05-02T10:30:25.637Z,25.70
2019-05-02T10:34:32.975Z,26.18
2019-05-02T10:38:38.825Z,28.45
2019-05-02T10:42:44.531Z,29.09
2019-05-02T10:46:57.741Z,27.53
2019-05-02T10:51:25.587Z,25.19
2019-05-02T10:55:28.600Z,25.35
2019-05-02T10:59:34.290Z,26.76
2019-05-02T11:03:47.434Z,28.53
2019-05-02T11:07:52.361Z,29.91
2019-05-02T11:12:02.576Z,30.94
2019-05-02T11:16:15.441Z,30.06
2019-05-02T11:24:44.437Z,27.37
2019-05-02T11:28:52.001Z,27.08
2019-05-02T11:32:58.778Z,26.60
2019-05-02T11:37:04.731Z,27.92
2019-05-02T11:41:11.924Z,28.67
2019-05-02T11:45:17.795Z,30.14
2019-05-02T11:49:23.530Z,30.42
2019-05-02T11:53:29.650Z,28.60
2019-05-02T11:57:35.382Z,29.01
2019-05-02T12:01:42.729Z,29.60
2019-05-02T12:05:49.443Z,26.76
2019-05-02T12:14:48.976Z,27.57
2019-05-02T12:19:08.190Z,26.92
2019-05-02T12:23:02.228Z,26.08
2019-05-02T12:27:08.057Z,28.32
2019-05-02T12:31:22.160Z,29.66
2019-05-02T12:35:27.818Z,29.85
2019-05-02T12:39:33.513Z,29.87
2019-05-02T12:43:39.204Z,31.80
2019-05-02T12:47:45.128Z,31.25
2019-05-02T12:51:52.437Z,28.76
2019-05-02T12:55:58.325Z,28.71
2019-05-02T13:00:08.146Z,28.68
2019-05-02T13:04:14.314Z,29.73
2019-05-02T13:08:21.921Z,27.96
2019-05-02T13:12:29.085Z,22.44
2019-05-02T13:16:34.796Z,20.80
2019-05-02T13:20:41.740Z,21.21
2019-05-02T13:24:54.961Z,23.75
2019-05-02T13:28:59.657Z,23.86
2019-05-02T13:33:07.154Z,22.54
2019-05-02T13:42:18.359Z,20.92
2019-05-02T13:46:26.764Z,23.16
2019-05-02T13:50:31.831Z,24.53
2019-05-02T13:54:38.360Z,24.39
2019-05-02T13:58:44.015Z,22.88
2019-05-02T14:02:51.886Z,22.99
2019-05-02T14:06:57.309Z,26.53
2019-05-02T14:11:05.524Z,27.79
2019-05-02T14:15:13.834Z,25.52
2019-05-02T14:19:19.654Z,23.34
2019-05-02T14:23:27.102Z,21.97
2019-05-02T14:27:32.920Z,22.18
2019-05-02T14:31:38.609Z,22.20
2019-05-02T14:35:46.363Z,22.55
2019-05-02T14:39:53.698Z,24.98
2019-05-02T14:43:59.466Z,25.82
2019-05-02T14:48:18.416Z,26.79
2019-05-02T14:52:13.027Z,27.49
2019-05-02T17:37:22.675Z,52.59
2019-05-02T17:41:28.350Z,52.60
2019-05-02T17:45:38.491Z,52.65
2019-05-02T17:49:42.309Z,53.18
2019-05-02T17:53:57.248Z,53.80
2019-05-02T17:58:04.570Z,52.05
2019-05-02T18:02:12.442Z,52.80
2019-05-02T18:06:30.110Z,52.89
2019-05-02T18:10:25.678Z,51.78
2019-05-02T18:14:31.355Z,51.80
2019-05-02T18:18:46.746Z,52.39
2019-05-02T18:22:51.939Z,52.11
2019-05-02T18:26:57.888Z,52.81
2019-05-02T18:31:05.832Z,51.91
2019-05-02T18:35:12.712Z,51.29
2019-05-02T18:39:18.555Z,50.94
2019-05-02T18:43:24.305Z,50.74
2019-05-02T18:47:30.002Z,50.63
2019-05-02T18:51:35.746Z,50.20
2019-05-02T18:55:42.205Z,50.87
2019-05-02T18:59:52.080Z,50.98
2019-05-02T19:03:56.684Z,50.28
2019-05-02T19:08:02.677Z,50.12
2019-05-02T19:12:41.913Z,50.68
2019-05-02T19:16:47.540Z,51.30
2019-05-02T19:23:22.603Z,50.08
2019-05-02T19:27:30.095Z,51.75
2019-05-02T19:31:44.332Z,52.29
2019-05-02T19:35:46.938Z,53.15
2019-05-02T19:44:11.941Z,54.86
2019-05-02T19:48:22.850Z,54.63
2019-05-02T19:52:38.608Z,55.29
2019-05-02T19:56:52.384Z,55.73
2019-05-02T20:00:57.959Z,56.01
2019-05-02T20:05:04.293Z,55.31
2019-05-02T20:09:10.617Z,54.94
2019-05-02T20:13:20.283Z,55.13
2019-05-02T20:17:33.146Z,55.01
2019-05-02T20:22:24.349Z,56.16
2019-05-02T20:26:32.391Z,55.00
2019-05-02T20:30:38.042Z,56.75
2019-05-02T20:34:43.752Z,55.21
2019-05-02T20:38:49.543Z,54.70
2019-05-02T20:42:55.843Z,54.77
2019-05-02T20:47:02.563Z,56.16
2019-05-02T20:51:08.333Z,55.81
2019-05-02T20:55:14.597Z,56.92
2019-05-02T20:59:21.815Z,57.58
2019-05-02T21:03:27.684Z,55.31
2019-05-02T21:07:42.300Z,55.21
2019-05-02T21:11:49.829Z,55.29
2019-05-02T21:15:56.072Z,58.53
2019-05-02T21:20:02.046Z,57.53
2019-05-02T21:24:07.916Z,56.15
2019-05-02T21:28:13.618Z,56.22
2019-05-02T21:32:19.313Z,58.12
2019-05-02T21:36:25.972Z,56.86
2019-05-02T21:40:32.694Z,58.07
2019-05-02T21:44:38.542Z,56.74
2019-05-02T21:48:44.297Z,57.10
2019-05-02T21:53:07.307Z,57.30
2019-05-02T21:57:14.640Z,56.77
2019-05-02T22:01:22.228Z,56.36
2019-05-02T22:05:27.989Z,56.73
2019-05-02T22:09:33.742Z,58.43
2019-05-02T22:13:39.433Z,58.82
2019-05-02T22:21:53.620Z,60.54
2019-05-02T22:25:59.363Z,60.79
2019-05-02T22:30:07.899Z,61.11
2019-05-02T22:34:13.581Z,61.79
2019-05-02T22:38:37.030Z,60.25
2019-05-02T22:42:42.856Z,59.72
2019-05-02T22:46:48.628Z,59.04
2019-05-02T22:50:54.337Z,58.72
2019-05-02T22:55:00.023Z,58.25
2019-05-02T22:59:06.822Z,58.20
2019-05-02T23:03:12.797Z,56.87
2019-05-02T23:07:18.491Z,57.74
2019-05-02T23:11:24.528Z,57.52
2019-05-02T23:15:31.991Z,56.95
2019-05-02T23:19:37.879Z,56.06
2019-05-02T23:23:43.589Z,57.85
2019-05-02T23:27:51.887Z,58.19
2019-05-02T23:31:57.597Z,59.45
2019-05-02T23:36:03.342Z,59.40
2019-05-02T23:40:09.359Z,58.52
2019-05-02T23:44:15.048Z,57.68
2019-05-02T23:48:22.072Z,58.00
2019-05-02T23:52:27.776Z,57.36
2019-05-02T23:56:33.609Z,57.23
